Time;durP1;ratioP1;P1;durP2;ratioP2;P2;SDS_P1;SDS_P2;PMS_P1;PMS_P2;Temp;Humidity;BMP_temperature;BMP_pressure;BME280_temperature;BME280_humidity;BME280_pressure;Samples;Min_cycle;Max_cycle;Signal;HPM_P1;HPM_P2
2023/05/28 00:01:57;;;;;;;1999.90;999.90;;;10.60;76.40;;;;;;5058500;28;20017;-88
2023/05/28 00:04:24;;;;;;;1999.90;999.90;;;10.60;76.50;;;;;;5052363;28;20064;-86
2023/05/28 00:06:52;;;;;;;1999.90;999.90;;;10.60;76.80;;;;;;5060433;28;20010;-88
2023/05/28 00:09:19;;;;;;;1999.90;999.90;;;10.50;77.00;;;;;;5051017;28;20024;-87
2023/05/28 00:11:44;;;;;;;1999.90;999.90;;;10.50;76.90;;;;;;5065454;28;20017;-85
2023/05/28 00:14:10;;;;;;;1999.90;999.90;;;10.70;76.40;;;;;;5061552;28;20086;-86
2023/05/28 00:16:37;;;;;;;1999.90;999.90;;;10.70;76.00;;;;;;5065362;28;20038;-85
2023/05/28 00:19:04;;;;;;;1999.90;999.90;;;10.70;75.70;;;;;;5056556;28;20026;-86
2023/05/28 00:21:34;;;;;;;1999.90;999.90;;;10.70;75.60;;;;;;5066414;28;20007;-86
2023/05/28 00:24:00;;;;;;;1999.90;999.90;;;10.70;76.10;;;;;;5071688;28;20043;-88
2023/05/28 00:26:26;;;;;;;1999.90;999.90;;;10.60;76.10;;;;;;5069214;28;20025;-88
2023/05/28 00:28:52;;;;;;;1999.90;999.90;;;10.50;76.40;;;;;;5067209;28;20010;-87
2023/05/28 00:31:18;;;;;;;1999.90;999.90;;;10.40;77.00;;;;;;5067673;28;20026;-88
2023/05/28 00:33:44;;;;;;;1999.90;999.90;;;10.40;77.40;;;;;;5041157;28;20044;-87
2023/05/28 00:36:12;;;;;;;1999.90;999.90;;;10.40;77.40;;;;;;5069937;28;20056;-88
2023/05/28 00:38:37;;;;;;;1999.90;999.90;;;10.40;77.60;;;;;;5033416;28;20021;-88
2023/05/28 00:41:03;;;;;;;1999.90;999.90;;;10.30;77.30;;;;;;5036492;28;20606;-88
2023/05/28 00:43:29;;;;;;;1999.90;999.90;;;10.30;77.60;;;;;;5043412;28;20029;-87
2023/05/28 00:45:58;;;;;;;1999.90;999.90;;;10.20;77.80;;;;;;5012612;28;20073;-89
2023/05/28 00:48:25;;;;;;;1999.90;999.90;;;10.10;78.70;;;;;;5030863;28;20021;-88
2023/05/28 00:50:51;;;;;;;1999.90;999.90;;;10.00;78.30;;;;;;5036729;28;20497;-88
2023/05/28 00:53:18;;;;;;;1999.90;999.90;;;10.10;78.90;;;;;;5039262;28;20049;-88
2023/05/28 00:55:44;;;;;;;1999.90;999.90;;;10.00;78.50;;;;;;5037364;28;20030;-88
2023/05/28 00:58:11;;;;;;;1999.90;999.90;;;10.10;78.60;;;;;;5036034;28;20057;-89
2023/05/28 01:00:37;;;;;;;1999.90;999.90;;;10.20;77.60;;;;;;5039542;28;20030;-87
2023/05/28 01:03:04;;;;;;;1999.90;999.90;;;10.10;78.50;;;;;;5034857;28;20469;-86
2023/05/28 01:05:34;;;;;;;1999.90;999.90;;;10.10;78.20;;;;;;5038054;28;20087;-88
2023/05/28 01:08:02;;;;;;;1999.90;999.90;;;10.00;78.60;;;;;;5042709;28;20036;-87
2023/05/28 01:10:29;;;;;;;1999.90;999.90;;;10.00;78.80;;;;;;5040494;28;20052;-86
2023/05/28 01:12:56;;;;;;;1999.90;999.90;;;9.90;78.80;;;;;;5034624;28;20493;-86
2023/05/28 01:15:23;;;;;;;1999.90;999.90;;;10.00;78.80;;;;;;5040222;28;20499;-89
2023/05/28 01:17:49;;;;;;;1999.90;999.90;;;10.00;79.30;;;;;;5038142;28;20136;-90
2023/05/28 01:20:15;;;;;;;1999.90;999.90;;;10.20;78.50;;;;;;5043339;28;20045;-91
2023/05/28 01:23:05;;;;;;;1999.90;999.90;;;10.10;78.20;;;;;;5044412;28;20108;-89
2023/05/28 01:25:32;;;;;;;1999.90;999.90;;;10.10;78.40;;;;;;5042863;28;20391;-88
2023/05/28 01:28:01;;;;;;;1999.90;999.90;;;10.10;78.60;;;;;;5042726;28;20050;-90
2023/05/28 01:30:27;;;;;;;1999.90;999.90;;;10.10;78.90;;;;;;5038928;28;20036;-90
2023/05/28 01:32:53;;;;;;;1999.90;999.90;;;10.10;78.50;;;;;;5041048;28;20034;-90
2023/05/28 01:35:19;;;;;;;1999.90;999.90;;;10.10;78.30;;;;;;5044482;28;20039;-89
2023/05/28 01:37:52;;;;;;;1999.90;999.90;;;10.00;78.70;;;;;;5039733;28;20033;-88
2023/05/28 01:40:18;;;;;;;1999.90;999.90;;;9.90;78.70;;;;;;5042512;28;20034;-89
2023/05/28 01:42:46;;;;;;;1999.90;999.90;;;9.90;79.90;;;;;;5036702;28;20125;-89
2023/05/28 01:45:12;;;;;;;1999.90;999.90;;;9.90;79.10;;;;;;5040019;28;20172;-89
2023/05/28 01:47:39;;;;;;;1999.90;999.90;;;9.90;79.20;;;;;;5043575;28;20029;-89
2023/05/28 01:50:05;;;;;;;1999.90;999.90;;;9.90;78.80;;;;;;5042535;28;20053;-89
2023/05/28 01:52:31;;;;;;;1999.90;999.90;;;9.90;78.40;;;;;;5033753;28;20018;-89
2023/05/28 01:54:57;;;;;;;1999.90;999.90;;;9.90;78.60;;;;;;5034335;28;20036;-89
2023/05/28 01:57:22;;;;;;;1999.90;999.90;;;9.90;78.80;;;;;;5033217;28;20033;-89
2023/05/28 01:59:48;;;;;;;1999.90;999.90;;;10.00;78.10;;;;;;5035411;28;20148;-89
2023/05/28 02:02:14;;;;;;;1999.90;999.90;;;9.90;78.20;;;;;;5032828;28;20092;-90
2023/05/28 02:04:39;;;;;;;1999.90;999.90;;;10.00;78.10;;;;;;5033642;28;20396;-90
2023/05/28 02:07:05;;;;;;;1999.90;999.90;;;10.00;78.30;;;;;;5032834;28;20030;-89
2023/05/28 02:09:31;;;;;;;1999.90;999.90;;;9.80;78.60;;;;;;5038860;28;20393;-89
2023/05/28 02:11:58;;;;;;;1999.90;999.90;;;9.90;78.80;;;;;;5028422;28;20451;-90
2023/05/28 02:14:24;;;;;;;1117.03;610.00;;;9.90;78.60;;;;;;5042302;28;20113;-91
2023/05/28 02:16:52;;;;;;;1999.90;999.90;;;10.00;78.20;;;;;;5034694;28;20071;-91
2023/05/28 02:19:18;;;;;;;1999.90;999.90;;;10.10;78.10;;;;;;5042624;28;20041;-90
2023/05/28 02:21:45;;;;;;;1999.90;999.90;;;10.00;78.20;;;;;;5035537;28;20133;-89
2023/05/28 02:24:10;;;;;;;1218.50;705.42;;;10.00;78.10;;;;;;5018083;28;20061;-91
2023/05/28 02:26:36;;;;;;;902.53;630.17;;;10.00;77.40;;;;;;5041187;28;20074;-90
2023/05/28 02:29:02;;;;;;;1999.90;999.90;;;10.00;77.10;;;;;;5032656;28;20371;-90
2023/05/28 02:31:28;;;;;;;1155.95;646.35;;;9.90;76.80;;;;;;5034925;28;20052;-88
2023/05/28 02:33:54;;;;;;;1999.90;999.90;;;9.90;77.00;;;;;;5039448;28;20492;-90
2023/05/28 02:36:20;;;;;;;1999.90;999.90;;;9.80;77.20;;;;;;5038939;28;20403;-91
2023/05/28 02:38:46;;;;;;;1999.90;999.90;;;9.80;77.30;;;;;;5040751;28;20393;-90
2023/05/28 02:41:12;;;;;;;1999.90;999.90;;;9.80;76.80;;;;;;5034716;28;20099;-90
2023/05/28 02:43:38;;;;;;;1999.90;999.90;;;9.80;77.20;;;;;;5014500;28;20497;-91
2023/05/28 02:46:03;;;;;;;1999.90;999.90;;;9.80;76.40;;;;;;5033339;28;20036;-89
2023/05/28 02:48:29;;;;;;;1999.90;999.90;;;9.80;76.50;;;;;;5031982;28;20026;-89
2023/05/28 02:50:55;;;;;;;1999.90;999.90;;;9.80;76.30;;;;;;5039937;28;20029;-87
2023/05/28 02:53:22;;;;;;;1999.90;999.90;;;9.90;75.80;;;;;;5034495;28;20036;-89
2023/05/28 02:55:48;;;;;;;1999.90;999.90;;;9.90;75.60;;;;;;5032151;28;20029;-87
2023/05/28 02:58:14;;;;;;;1999.90;999.90;;;9.80;76.40;;;;;;5042129;28;20029;-87
2023/05/28 03:00:40;;;;;;;862.42;592.05;;;9.70;76.50;;;;;;5035312;28;20047;-87
2023/05/28 03:03:06;;;;;;;1999.90;999.90;;;9.70;76.70;;;;;;5033052;28;20033;-87
2023/05/28 03:05:32;;;;;;;915.53;641.72;;;9.60;76.70;;;;;;5040824;28;20483;-87
2023/05/28 03:08:01;;;;;;;1999.90;999.90;;;9.50;77.50;;;;;;5030704;28;20025;-87
2023/05/28 03:10:26;;;;;;;1999.90;999.90;;;9.50;77.30;;;;;;5015615;28;20480;-87
2023/05/28 03:12:52;;;;;;;533.05;503.55;;;9.50;77.30;;;;;;5035253;28;20032;-87
2023/05/28 03:15:18;;;;;;;1999.90;999.90;;;9.50;77.30;;;;;;5030933;28;20021;-86
2023/05/28 03:17:43;;;;;;;900.83;627.75;;;9.50;77.20;;;;;;5040156;28;20025;-87
2023/05/28 03:20:10;;;;;;;534.35;503.58;;;9.50;77.20;;;;;;5036997;28;20048;-87
2023/05/28 03:22:36;;;;;;;552.53;521.80;;;9.40;77.20;;;;;;5037198;28;20116;-87
2023/05/28 03:25:05;;;;;;;1999.90;999.90;;;9.40;77.00;;;;;;5037842;28;20033;-86
2023/05/28 03:27:32;;;;;;;1999.90;999.90;;;9.40;77.10;;;;;;5033067;28;20026;-88
2023/05/28 03:29:58;;;;;;;519.08;489.13;;;9.40;76.90;;;;;;5037385;28;20504;-86
2023/05/28 03:32:24;;;;;;;1171.30;661.15;;;9.30;76.80;;;;;;5021912;28;20041;-87
2023/05/28 03:34:49;;;;;;;522.75;494.52;;;9.40;76.30;;;;;;5034201;28;20029;-87
2023/05/28 03:37:15;;;;;;;1999.90;999.90;;;9.30;76.80;;;;;;5039640;28;20080;-87
2023/05/28 03:39:41;;;;;;;864.35;594.58;;;9.40;76.30;;;;;;5032093;28;20504;-87
2023/05/28 03:42:07;;;;;;;906.72;633.85;;;9.40;76.30;;;;;;5034792;28;20393;-87
2023/05/28 03:44:34;;;;;;;1999.90;999.90;;;9.40;76.60;;;;;;5031545;28;20440;-88
2023/05/28 03:46:59;;;;;;;539.72;510.27;;;9.30;76.30;;;;;;5032759;28;20066;-88
2023/05/28 03:49:25;;;;;;;567.17;536.22;;;9.30;76.90;;;;;;5038452;28;20032;-88
2023/05/28 03:51:51;;;;;;;517.72;489.13;;;9.40;76.00;;;;;;5035127;28;20071;-89
2023/05/28 03:54:16;;;;;;;570.75;538.28;;;9.40;76.20;;;;;;5030961;28;20061;-91
2023/05/28 03:56:43;;;;;;;539.97;509.45;;;9.40;76.00;;;;;;5040886;28;20029;-90
2023/05/28 03:59:08;;;;;;;1999.90;999.90;;;9.40;76.30;;;;;;5034416;28;20029;-92
2023/05/28 04:01:35;;;;;;;477.60;449.73;;;9.40;75.20;;;;;;5041212;28;20040;-89
2023/05/28 04:04:01;;;;;;;494.40;468.60;;;9.50;75.50;;;;;;5039289;28;20140;-89
2023/05/28 04:06:27;;;;;;;502.20;473.00;;;9.50;75.60;;;;;;5036318;28;20179;-89
2023/05/28 04:08:52;;;;;;;1999.90;999.90;;;9.60;74.50;;;;;;5046970;28;20033;-89
2023/05/28 04:11:18;;;;;;;945.15;670.88;;;9.60;73.70;;;;;;5039507;28;20035;-90
2023/05/28 04:13:44;;;;;;;849.30;578.70;;;9.70;73.00;;;;;;5039395;28;20060;-90
2023/05/28 04:16:10;;;;;;;442.65;418.60;;;9.70;73.50;;;;;;5044440;28;20504;-90
2023/05/28 04:18:35;;;;;;;841.08;571.92;;;9.70;73.10;;;;;;5039564;28;20508;-89
2023/05/28 04:21:01;;;;;;;407.70;382.90;;;9.70;72.80;;;;;;5041682;28;20056;-89
2023/05/28 04:23:27;;;;;;;1999.90;999.90;;;9.80;72.50;;;;;;5041419;28;20040;-89
2023/05/28 04:25:53;;;;;;;1999.90;999.90;;;9.80;72.40;;;;;;5035737;28;20025;-90
2023/05/28 04:28:19;;;;;;;1999.90;999.90;;;9.90;72.40;;;;;;5042850;28;20037;-90
2023/05/28 04:30:45;;;;;;;1999.90;999.90;;;9.90;72.70;;;;;;5041577;28;20025;-89
2023/05/28 04:33:10;;;;;;;830.42;561.08;;;10.00;72.50;;;;;;5035907;28;20036;-89
2023/05/28 04:35:36;;;;;;;514.85;484.13;;;10.00;72.70;;;;;;5039900;28;20040;-89
2023/05/28 04:38:02;;;;;;;1999.90;999.90;;;10.10;72.10;;;;;;5031497;28;20116;-90
2023/05/28 04:40:27;;;;;;;1999.90;999.90;;;10.20;72.10;;;;;;5036425;28;20037;-89
2023/05/28 04:42:55;;;;;;;1999.90;999.90;;;10.20;71.80;;;;;;5041011;28;20030;-89
2023/05/28 04:45:21;;;;;;;1999.90;999.90;;;10.20;72.00;;;;;;5036489;28;20124;-89
2023/05/28 04:47:48;;;;;;;270.73;253.50;;;10.30;70.90;;;;;;5040045;28;20124;-88
2023/05/28 04:50:13;;;;;;;1999.90;999.90;;;10.40;71.10;;;;;;5017740;28;20034;-90
2023/05/28 04:52:39;;;;;;;1999.90;999.90;;;10.40;71.00;;;;;;5038993;28;20029;-89
2023/05/28 04:55:05;;;;;;;1999.90;999.90;;;10.50;71.10;;;;;;5036617;28;20033;-89
2023/05/28 04:57:32;;;;;;;1999.90;999.90;;;10.50;70.00;;;;;;5029173;28;20037;-89
2023/05/28 04:59:58;;;;;;;1999.90;999.90;;;10.50;70.30;;;;;;5032284;28;20021;-90
2023/05/28 05:02:24;;;;;;;1999.90;999.90;;;10.60;70.00;;;;;;5035205;28;20036;-89
2023/05/28 05:04:50;;;;;;;1999.90;999.90;;;10.60;69.70;;;;;;5019289;28;20036;-88
2023/05/28 05:07:17;;;;;;;1141.88;634.95;;;10.60;70.00;;;;;;5045432;28;20029;-87
2023/05/28 05:09:43;;;;;;;1999.90;999.90;;;10.70;69.20;;;;;;5018634;28;20176;-87
2023/05/28 05:12:09;;;;;;;1999.90;999.90;;;10.70;69.70;;;;;;5037983;28;20085;-88
2023/05/28 05:14:35;;;;;;;1999.90;999.90;;;10.80;69.90;;;;;;5042498;28;20025;-88
2023/05/28 05:17:02;;;;;;;1999.90;999.90;;;10.90;69.20;;;;;;5033172;28;20033;-88
2023/05/28 05:19:28;;;;;;;1999.90;999.90;;;11.00;68.30;;;;;;5035773;28;20083;-88
2023/05/28 05:21:53;;;;;;;1999.90;999.90;;;11.10;68.90;;;;;;5042832;28;20052;-88
2023/05/28 05:24:19;;;;;;;1999.90;999.90;;;11.00;68.50;;;;;;5035457;28;20034;-88
2023/05/28 05:26:45;;;;;;;1999.90;999.90;;;11.10;68.30;;;;;;5039847;28;20447;-87
2023/05/28 05:29:11;;;;;;;1999.90;999.90;;;11.20;68.90;;;;;;5036026;28;20033;-87
2023/05/28 05:31:36;;;;;;;1999.90;999.90;;;11.20;69.50;;;;;;5035659;28;20136;-86
2023/05/28 05:34:02;;;;;;;1999.90;999.90;;;11.30;68.70;;;;;;5038708;28;20037;-85
2023/05/28 05:36:27;;;;;;;1999.90;999.90;;;11.50;68.20;;;;;;5039810;28;20026;-88
2023/05/28 05:38:53;;;;;;;1999.90;999.90;;;11.50;67.70;;;;;;5039618;28;20029;-86
2023/05/28 05:41:19;;;;;;;1999.90;999.90;;;11.40;68.10;;;;;;5033855;28;20102;-86
2023/05/28 05:43:44;;;;;;;1999.90;999.90;;;11.50;68.10;;;;;;5034575;28;20511;-86
2023/05/28 05:46:10;;;;;;;1999.90;999.90;;;11.60;67.50;;;;;;5039060;28;20101;-86
2023/05/28 05:48:36;;;;;;;1999.90;999.90;;;11.70;68.60;;;;;;5035924;28;20571;-85
2023/05/28 05:51:02;;;;;;;1999.90;999.90;;;11.80;69.00;;;;;;5018116;28;20059;-86
2023/05/28 05:53:28;;;;;;;1999.90;999.90;;;11.80;67.90;;;;;;5038717;28;20040;-87
2023/05/28 05:55:54;;;;;;;1999.90;999.90;;;11.90;67.90;;;;;;5034210;28;20026;-87
2023/05/28 05:58:21;;;;;;;1999.90;999.90;;;12.00;68.00;;;;;;5045347;28;20036;-85
2023/05/28 06:00:50;;;;;;;1999.90;999.90;;;12.10;68.20;;;;;;5032328;28;20041;-86
2023/05/28 06:03:16;;;;;;;1999.90;999.90;;;12.20;68.10;;;;;;5036506;28;20103;-86
2023/05/28 06:05:41;;;;;;;1999.90;999.90;;;12.30;67.70;;;;;;5038945;28;20118;-86
2023/05/28 06:08:08;;;;;;;1999.90;999.90;;;12.40;67.70;;;;;;5031572;28;20025;-85
2023/05/28 06:10:35;;;;;;;1999.90;999.90;;;12.50;67.50;;;;;;5039145;28;20036;-85
2023/05/28 06:13:01;;;;;;;1999.90;999.90;;;12.60;67.70;;;;;;5037772;28;20086;-86
2023/05/28 06:15:28;;;;;;;1999.90;999.90;;;12.60;67.60;;;;;;5035945;28;20025;-86
2023/05/28 06:17:55;;;;;;;1999.90;999.90;;;12.70;67.60;;;;;;5044338;28;20021;-86
2023/05/28 06:20:21;;;;;;;1999.90;999.90;;;12.70;66.80;;;;;;5035887;28;20526;-85
2023/05/28 06:22:46;;;;;;;1999.90;999.90;;;12.80;68.90;;;;;;5038920;28;20044;-85
2023/05/28 06:25:12;;;;;;;1999.90;999.90;;;12.90;67.90;;;;;;5023228;28;20030;-86
2023/05/28 06:27:38;;;;;;;1999.90;999.90;;;13.00;65.90;;;;;;5013049;28;20026;-86
2023/05/28 06:30:04;;;;;;;1999.90;999.90;;;13.10;67.50;;;;;;5038183;28;20443;-86
2023/05/28 06:32:31;;;;;;;1999.90;999.90;;;13.30;67.00;;;;;;5037610;28;20029;-86
2023/05/28 06:34:57;;;;;;;1999.90;999.90;;;13.50;67.00;;;;;;5029882;28;20083;-86
2023/05/28 06:37:22;;;;;;;1999.90;999.90;;;13.60;66.70;;;;;;5039948;28;20029;-87
2023/05/28 06:39:48;;;;;;;1999.90;999.90;;;13.70;65.00;;;;;;5032458;28;20548;-87
2023/05/28 06:42:14;;;;;;;1999.90;999.90;;;13.80;65.80;;;;;;5035326;28;20029;-87
2023/05/28 06:44:40;;;;;;;1999.90;999.90;;;13.90;66.40;;;;;;5039664;28;20035;-87
2023/05/28 06:47:05;;;;;;;1999.90;999.90;;;14.00;65.30;;;;;;5038320;28;20112;-87
2023/05/28 06:49:31;;;;;;;1999.90;999.90;;;14.00;65.10;;;;;;5038202;28;20377;-87
2023/05/28 06:51:58;;;;;;;1999.90;999.90;;;14.10;63.80;;;;;;5033387;28;20025;-88
2023/05/28 06:54:23;;;;;;;1999.90;999.90;;;14.10;64.70;;;;;;5015676;28;20453;-88
2023/05/28 06:56:49;;;;;;;1999.90;999.90;;;14.30;64.50;;;;;;5044517;28;20124;-88
2023/05/28 06:59:15;;;;;;;1999.90;999.90;;;14.50;63.90;;;;;;5035061;28;20586;-89
2023/05/28 07:01:41;;;;;;;1999.90;999.90;;;14.50;63.10;;;;;;5039280;28;20036;-88
2023/05/28 07:04:06;;;;;;;1999.90;999.90;;;14.40;63.30;;;;;;5034947;28;20037;-88
2023/05/28 07:06:33;;;;;;;1999.90;999.90;;;14.40;63.20;;;;;;5037368;28;20114;-89
2023/05/28 07:08:59;;;;;;;1999.90;999.90;;;14.40;62.80;;;;;;5040144;28;20435;-87
2023/05/28 07:11:26;;;;;;;1999.90;999.90;;;14.60;65.00;;;;;;5035564;28;20582;-88
2023/05/28 07:13:54;;;;;;;1999.90;999.90;;;14.90;63.40;;;;;;5034290;28;21470;-88
2023/05/28 07:16:20;;;;;;;1999.90;999.90;;;15.20;62.60;;;;;;5043702;28;20132;-87
2023/05/28 07:18:46;;;;;;;1999.90;999.90;;;15.00;62.40;;;;;;5018995;28;20041;-86
2023/05/28 07:21:12;;;;;;;1999.90;999.90;;;15.20;63.20;;;;;;5038663;28;20033;-87
2023/05/28 07:23:37;;;;;;;1999.90;999.90;;;15.20;63.60;;;;;;5035684;28;20481;-87
2023/05/28 07:26:04;;;;;;;1999.90;999.90;;;15.50;63.80;;;;;;5032067;28;20104;-88
2023/05/28 07:28:32;;;;;;;1999.90;999.90;;;15.60;62.80;;;;;;5036162;28;20481;-88
2023/05/28 07:30:57;;;;;;;1999.90;999.90;;;15.60;61.60;;;;;;5029675;28;20029;-88
2023/05/28 07:33:23;;;;;;;1999.90;999.90;;;15.90;62.70;;;;;;5017405;28;20051;-88
2023/05/28 07:35:49;;;;;;;1999.90;999.90;;;16.00;60.40;;;;;;5037944;28;20083;-87
2023/05/28 07:38:15;;;;;;;1999.90;999.90;;;16.00;59.70;;;;;;5032963;28;20095;-87
2023/05/28 07:40:41;;;;;;;1999.90;999.90;;;15.90;60.10;;;;;;5034298;28;20073;-87
2023/05/28 07:43:07;;;;;;;1999.90;999.90;;;16.10;59.30;;;;;;5038173;28;20029;-87
2023/05/28 07:45:33;;;;;;;1999.90;999.90;;;16.20;59.30;;;;;;5036195;28;20025;-88
2023/05/28 07:47:58;;;;;;;1999.90;999.90;;;16.40;59.30;;;;;;5039641;28;20083;-87
2023/05/28 07:50:24;;;;;;;1999.90;999.90;;;16.50;59.00;;;;;;5041375;28;20029;-86
2023/05/28 07:52:50;;;;;;;1999.90;999.90;;;16.60;59.20;;;;;;5041652;28;20190;-86
2023/05/28 07:55:16;;;;;;;1999.90;999.90;;;16.80;58.90;;;;;;5047380;28;20029;-87
2023/05/28 07:57:42;;;;;;;1999.90;999.90;;;17.10;58.70;;;;;;5034938;28;20036;-87
2023/05/28 08:00:15;;;;;;;1999.90;999.90;;;17.10;55.70;;;;;;5044555;28;20493;-87
2023/05/28 08:02:42;;;;;;;1999.90;999.90;;;17.30;57.00;;;;;;5040715;28;20080;-87
2023/05/28 08:05:08;;;;;;;1999.90;999.90;;;17.60;58.40;;;;;;5037449;28;20068;-86
2023/05/28 08:07:34;;;;;;;1999.90;999.90;;;17.60;54.90;;;;;;5043874;28;20036;-87
2023/05/28 08:10:00;;;;;;;1999.90;999.90;;;17.70;56.10;;;;;;5037954;28;20496;-87
2023/05/28 08:12:26;;;;;;;1999.90;999.90;;;18.10;55.60;;;;;;5043739;28;20362;-87
2023/05/28 08:14:52;;;;;;;1999.90;999.90;;;18.10;53.20;;;;;;5043088;28;20048;-87
2023/05/28 08:17:21;;;;;;;1999.90;999.90;;;18.30;54.10;;;;;;5036790;28;20485;-87
2023/05/28 08:19:47;;;;;;;1999.90;999.90;;;18.40;52.70;;;;;;5045920;28;20057;-86
2023/05/28 08:22:12;;;;;;;1999.90;999.90;;;18.30;52.30;;;;;;5044667;28;20128;-87
2023/05/28 08:24:38;;;;;;;1999.90;999.90;;;18.40;51.50;;;;;;5047277;28;20116;-88
2023/05/28 08:27:05;;;;;;;1999.90;999.90;;;18.30;52.00;;;;;;5040579;28;20029;-88
2023/05/28 08:29:31;;;;;;;1999.90;999.90;;;18.70;51.50;;;;;;5022826;28;20040;-87
2023/05/28 08:31:57;;;;;;;1999.90;999.90;;;18.90;51.50;;;;;;5043161;28;20033;-87
2023/05/28 08:34:23;;;;;;;1999.90;999.90;;;19.00;50.30;;;;;;5041699;28;20037;-88
2023/05/28 08:36:49;;;;;;;1999.90;999.90;;;18.80;48.40;;;;;;5034812;28;20060;-86
2023/05/28 08:39:15;;;;;;;1999.90;999.90;;;19.00;49.70;;;;;;5042054;28;20060;-87
2023/05/28 08:41:40;;;;;;;1999.90;999.90;;;19.30;47.70;;;;;;5040588;28;20481;-86
2023/05/28 08:44:06;;;;;;;1999.90;999.90;;;19.50;49.70;;;;;;5038444;28;20094;-88
2023/05/28 08:46:32;;;;;;;1999.90;999.90;;;19.80;46.90;;;;;;5042263;28;20108;-87
2023/05/28 08:48:58;;;;;;;1999.90;999.90;;;19.80;49.50;;;;;;5035251;28;20029;-88
2023/05/28 08:51:27;;;;;;;1999.90;999.90;;;20.20;44.20;;;;;;5039876;28;20036;-87
2023/05/28 08:53:55;;;;;;;1999.90;999.90;;;20.20;44.10;;;;;;5036596;28;20033;-88
2023/05/28 08:56:21;;;;;;;1999.90;999.90;;;20.40;45.30;;;;;;5033240;28;20032;-88
2023/05/28 08:58:47;;;;;;;1999.90;999.90;;;20.30;46.50;;;;;;5042828;28;20037;-87
2023/05/28 09:01:13;;;;;;;1999.90;999.90;;;20.70;45.90;;;;;;5033634;28;20378;-87
2023/05/28 09:03:40;;;;;;;1999.90;999.90;;;20.90;43.00;;;;;;5033941;28;20094;-87
2023/05/28 09:06:09;;;;;;;1999.90;999.90;;;20.60;41.60;;;;;;5020894;28;20037;-87
2023/05/28 09:08:35;;;;;;;1999.90;999.90;;;20.70;40.40;;;;;;5031814;28;20500;-87
2023/05/28 09:11:14;;;;;;;1999.90;999.90;;;20.90;40.90;;;;;;5038335;28;20033;-87
2023/05/28 09:13:48;;;;;;;1999.90;999.90;;;21.20;41.60;;;;;;5033722;28;20741;-87
2023/05/28 09:16:21;;;;;;;1999.90;999.90;;;21.10;39.50;;;;;;5005514;28;20034;-87
2023/05/28 09:18:51;;;;;;;1999.90;999.90;;;21.30;40.30;;;;;;5034556;28;20047;-87
2023/05/28 09:21:19;;;;;;;1999.90;999.90;;;21.30;39.80;;;;;;5033789;28;20095;-87
2023/05/28 09:23:50;;;;;;;1999.90;999.90;;;21.10;38.50;;;;;;5027773;28;20041;-87
2023/05/28 09:26:19;;;;;;;1999.90;999.90;;;21.50;40.60;;;;;;5030303;28;20666;-87
2023/05/28 09:28:45;;;;;;;1999.90;999.90;;;21.40;39.40;;;;;;5033359;28;20021;-87
2023/05/28 09:31:11;;;;;;;1999.90;999.90;;;21.60;43.00;;;;;;5026043;28;20033;-85
2023/05/28 09:33:44;;;;;;;1999.90;999.90;;;21.70;38.90;;;;;;5032220;28;20382;-85
2023/05/28 09:36:10;;;;;;;1999.90;999.90;;;21.60;39.10;;;;;;5033514;28;20084;-84
2023/05/28 09:38:40;;;;;;;1999.90;999.90;;;21.40;40.40;;;;;;5042342;28;20026;-85
2023/05/28 09:41:17;;;;;;;1999.90;999.90;;;21.70;41.30;;;;;;5030799;28;20268;-84
2023/05/28 09:43:42;;;;;;;1999.90;999.90;;;21.80;40.00;;;;;;5042164;28;20028;-84
2023/05/28 09:46:08;;;;;;;1999.90;999.90;;;21.70;38.30;;;;;;5036322;28;20400;-84
2023/05/28 09:48:34;;;;;;;1999.90;999.90;;;21.90;39.50;;;;;;5033819;28;20051;-84
2023/05/28 09:51:03;;;;;;;1999.90;999.90;;;22.10;41.40;;;;;;5030883;28;20660;-84
2023/05/28 09:53:33;;;;;;;1999.90;999.90;;;21.80;37.70;;;;;;5036484;28;20832;-84
2023/05/28 09:56:00;;;;;;;1999.90;999.90;;;21.70;40.20;;;;;;5039365;28;20021;-86
2023/05/28 09:58:36;;;;;;;1999.90;999.90;;;21.90;37.10;;;;;;5039444;28;20033;-84
2023/05/28 10:01:10;;;;;;;1999.90;999.90;;;22.10;37.40;;;;;;5032213;28;20030;-85
2023/05/28 10:03:46;;;;;;;1999.90;999.90;;;22.00;36.80;;;;;;5034081;28;20561;-85
2023/05/28 10:06:16;;;;;;;1999.90;999.90;;;22.40;37.10;;;;;;5035094;28;20036;-85
2023/05/28 10:08:46;;;;;;;1999.90;999.90;;;22.40;37.70;;;;;;5033612;28;20021;-85
2023/05/28 10:11:15;;;;;;;1999.90;999.90;;;22.10;34.90;;;;;;5036716;28;20098;-85
2023/05/28 10:13:42;;;;;;;1999.90;999.90;;;22.50;38.00;;;;;;5030332;28;20034;-84
2023/05/28 10:16:08;;;;;;;1999.90;999.90;;;22.50;35.80;;;;;;5037360;28;20059;-84
2023/05/28 10:18:35;;;;;;;1999.90;999.90;;;22.70;35.40;;;;;;5033147;28;20132;-84
2023/05/28 10:21:01;;;;;;;1999.90;999.90;;;22.80;37.10;;;;;;5037523;28;20041;-84
2023/05/28 10:23:28;;;;;;;1999.90;999.90;;;23.20;36.60;;;;;;5038352;28;20056;-84
2023/05/28 10:25:54;;;;;;;1999.90;999.90;;;23.40;32.50;;;;;;5016797;28;20041;-85
2023/05/28 10:28:21;;;;;;;1999.90;999.90;;;23.20;35.10;;;;;;5040865;28;20374;-85
2023/05/28 10:31:04;;;;;;;1999.90;999.90;;;22.60;32.70;;;;;;5035176;28;20037;-86
2023/05/28 10:33:30;;;;;;;1999.90;999.90;;;22.70;36.80;;;;;;5033655;28;20029;-86
2023/05/28 10:36:00;;;;;;;1999.90;999.90;;;22.70;33.10;;;;;;5040058;28;20029;-85
2023/05/28 10:38:27;;;;;;;1999.90;999.90;;;22.70;32.40;;;;;;5034216;28;20030;-85
2023/05/28 10:41:00;;;;;;;1999.90;999.90;;;23.40;33.10;;;;;;5038159;28;20033;-84
2023/05/28 10:43:38;;;;;;;1999.90;999.90;;;23.50;30.70;;;;;;5039645;28;20033;-85
2023/05/28 10:46:24;;;;;;;1999.90;999.90;;;23.10;34.00;;;;;;5032511;28;20048;-84
2023/05/28 10:49:13;;;;;;;1999.90;999.90;;;23.20;34.70;;;;;;5030846;28;20128;-85
2023/05/28 10:52:02;;;;;;;1999.90;999.90;;;23.60;29.90;;;;;;5030081;28;20033;-85
2023/05/28 10:54:35;;;;;;;1999.90;999.90;;;24.20;29.60;;;;;;5038911;28;20024;-85
2023/05/28 10:57:21;;;;;;;1999.90;999.90;;;24.50;28.40;;;;;;5035030;28;20032;-85
2023/05/28 10:59:54;;;;;;;1999.90;999.90;;;24.80;28.10;;;;;;5038199;28;20504;-85
2023/05/28 11:02:25;;;;;;;1999.90;999.90;;;25.60;27.50;;;;;;5040368;28;20025;-85
2023/05/28 11:04:55;;;;;;;1999.90;999.90;;;25.00;28.60;;;;;;5034885;28;20472;-85
2023/05/28 11:07:23;;;;;;;1999.90;999.90;;;24.90;30.20;;;;;;5040590;28;20391;-85
2023/05/28 11:09:51;;;;;;;1999.90;999.90;;;24.60;27.50;;;;;;5034877;28;20030;-87
2023/05/28 11:12:19;;;;;;;1999.90;999.90;;;25.00;28.60;;;;;;5033603;28;20527;-86
2023/05/28 11:14:45;;;;;;;1999.90;999.90;;;25.00;28.90;;;;;;5041413;28;20560;-86
2023/05/28 11:17:11;;;;;;;1999.90;999.90;;;25.30;26.50;;;;;;5038897;28;20117;-86
2023/05/28 11:19:47;;;;;;;1999.90;999.90;;;25.60;27.80;;;;;;5035633;28;20074;-86
2023/05/28 11:22:13;;;;;;;1999.90;999.90;;;26.20;27.80;;;;;;5039393;28;20538;-86
2023/05/28 11:24:56;;;;;;;1999.90;999.90;;;26.70;25.40;;;;;;5036576;28;20051;-86
2023/05/28 11:27:23;;;;;;;1999.90;999.90;;;25.90;26.00;;;;;;5045326;28;20086;-85
2023/05/28 11:29:50;;;;;;;1999.90;999.90;;;25.90;24.20;;;;;;5039359;28;20109;-86
2023/05/28 11:32:18;;;;;;;1999.90;999.90;;;26.30;25.10;;;;;;5037330;28;20029;-87
2023/05/28 11:34:44;;;;;;;1999.90;999.90;;;26.70;24.30;;;;;;5039384;28;20484;-85
2023/05/28 11:37:10;;;;;;;1999.90;999.90;;;26.90;25.00;;;;;;5038129;28;20044;-85
2023/05/28 11:39:35;;;;;;;1999.90;999.90;;;27.50;23.50;;;;;;5039457;28;20044;-87
2023/05/28 11:42:01;;;;;;;1999.90;999.90;;;26.70;23.30;;;;;;5045869;28;20020;-86
2023/05/28 11:44:27;;;;;;;1999.90;999.90;;;26.50;22.90;;;;;;5037800;28;20072;-86
2023/05/28 11:46:56;;;;;;;1999.90;999.90;;;26.60;24.50;;;;;;5019264;28;20030;-86
2023/05/28 11:49:22;;;;;;;1999.90;999.90;;;26.70;24.70;;;;;;5029375;28;20037;-86
2023/05/28 11:51:52;;;;;;;1999.90;999.90;;;27.10;23.70;;;;;;5041754;28;20050;-87
2023/05/28 11:54:18;;;;;;;1999.90;999.90;;;27.60;23.60;;;;;;5022803;28;20460;-85
2023/05/28 11:56:47;;;;;;;1999.90;999.90;;;27.60;23.00;;;;;;5033008;28;20057;-86
2023/05/28 11:59:13;;;;;;;1999.90;999.90;;;28.10;21.40;;;;;;5039282;28;20033;-87
2023/05/28 12:01:39;;;;;;;1999.90;999.90;;;27.70;21.60;;;;;;5037429;28;20688;-88